Main page
METAR-TAF:

METAR-TAF

Airports :

Gatesville Municipal Airport

Gatesville, Texas, United States

latitude: 31-25-16N, longitude: 097-47-49W, elevation: 905 ft

Current weather observation

The report was made 27 minutes ago, at 17:35 UTC
Wind 3 mph from variable directions
Temperature 88°F
Humidity 59%
Pressure 30.01 in. Hg
Visibility: 10 miles
Few clouds at a height of 4600 ft

METAR: KGOP 141735Z AUTO VRB03KT 10SM FEW046 31/22 A3001 RMK AO2

Time: 13:02 (18:02 UTC)


TAF: missing

Weather observations and forecasts of more than 4000 airports (METAR and TAF reports).

The available stations are represented by yellow and red dots on the map.

Hover mouse over dot to see the name of the station.

Then click to see weather observations and forecasts.

To change the map : click on the green buttons with a black cross to zoom in, on the green button with a dash to zoom out, or on the green arrows for adjacent maps.


METAR-TAF: